sensor_id;sensor_type;location;lat;lon;timestamp;temperature;humidity
11934;DHT22;6026;48.784;9.198;2022-08-02T00:01:38;19.30;99.90
11934;DHT22;6026;48.784;9.198;2022-08-02T00:04:03;19.30;99.90
11934;DHT22;6026;48.784;9.198;2022-08-02T00:06:29;19.30;99.90
11934;DHT22;6026;48.784;9.198;2022-08-02T00:08:55;19.20;99.90
11934;DHT22;6026;48.784;9.198;2022-08-02T00:11:21;19.30;99.90
11934;DHT22;6026;48.784;9.198;2022-08-02T00:13:46;19.20;99.90
11934;DHT22;6026;48.784;9.198;2022-08-02T00:16:12;19.20;99.90
11934;DHT22;6026;48.784;9.198;2022-08-02T00:18:37;19.20;99.90
11934;DHT22;6026;48.784;9.198;2022-08-02T00:21:03;19.30;99.90
11934;DHT22;6026;48.784;9.198;2022-08-02T00:23:29;19.20;99.90
11934;DHT22;6026;48.784;9.198;2022-08-02T00:25:54;19.30;99.90
11934;DHT22;6026;48.784;9.198;2022-08-02T00:28:20;19.30;99.90
11934;DHT22;6026;48.784;9.198;2022-08-02T00:30:46;19.30;99.90
11934;DHT22;6026;48.784;9.198;2022-08-02T00:33:11;19.40;99.90
11934;DHT22;6026;48.784;9.198;2022-08-02T00:35:37;19.40;99.90
11934;DHT22;6026;48.784;9.198;2022-08-02T00:38:03;19.30;99.90
11934;DHT22;6026;48.784;9.198;2022-08-02T00:40:29;19.30;99.90
11934;DHT22;6026;48.784;9.198;2022-08-02T00:43:09;19.20;99.90
11934;DHT22;6026;48.784;9.198;2022-08-02T00:45:40;19.20;99.90
11934;DHT22;6026;48.784;9.198;2022-08-02T00:48:07;19.20;99.90
11934;DHT22;6026;48.784;9.198;2022-08-02T00:50:34;19.20;99.90
11934;DHT22;6026;48.784;9.198;2022-08-02T00:53:00;19.10;99.90
11934;DHT22;6026;48.784;9.198;2022-08-02T00:55:26;19.10;99.90
11934;DHT22;6026;48.784;9.198;2022-08-02T00:57:52;19.20;99.90
11934;DHT22;6026;48.784;9.198;2022-08-02T01:00:18;19.20;99.90
11934;DHT22;6026;48.784;9.198;2022-08-02T01:02:44;19.10;99.90
11934;DHT22;6026;48.784;9.198;2022-08-02T01:05:10;19.10;99.90
11934;DHT22;6026;48.784;9.198;2022-08-02T01:07:36;19.10;99.90
11934;DHT22;6026;48.784;9.198;2022-08-02T01:10:02;19.10;99.90
11934;DHT22;6026;48.784;9.198;2022-08-02T01:12:28;19.00;99.90
11934;DHT22;6026;48.784;9.198;2022-08-02T01:15:00;19.00;99.90
11934;DHT22;6026;48.784;9.198;2022-08-02T01:17:53;19.00;99.90
11934;DHT22;6026;48.784;9.198;2022-08-02T01:28:25;19.10;99.90
11934;DHT22;6026;48.784;9.198;2022-08-02T01:30:57;19.10;99.90
11934;DHT22;6026;48.784;9.198;2022-08-02T01:33:27;19.00;99.90
11934;DHT22;6026;48.784;9.198;2022-08-02T01:35:55;19.10;99.90
11934;DHT22;6026;48.784;9.198;2022-08-02T01:38:34;19.00;99.90
11934;DHT22;6026;48.784;9.198;2022-08-02T01:41:02;19.00;99.90
11934;DHT22;6026;48.784;9.198;2022-08-02T01:43:30;19.00;99.90
11934;DHT22;6026;48.784;9.198;2022-08-02T01:45:59;19.00;99.90
11934;DHT22;6026;48.784;9.198;2022-08-02T01:48:28;18.90;99.90
11934;DHT22;6026;48.784;9.198;2022-08-02T01:50:58;18.90;99.90
11934;DHT22;6026;48.784;9.198;2022-08-02T01:53:25;19.00;99.90
11934;DHT22;6026;48.784;9.198;2022-08-02T01:55:53;19.00;99.90
11934;DHT22;6026;48.784;9.198;2022-08-02T01:58:22;18.90;99.90
11934;DHT22;6026;48.784;9.198;2022-08-02T02:00:50;18.90;99.90
11934;DHT22;6026;48.784;9.198;2022-08-02T02:03:19;18.80;99.90
11934;DHT22;6026;48.784;9.198;2022-08-02T02:05:48;18.80;99.90
11934;DHT22;6026;48.784;9.198;2022-08-02T02:08:15;18.80;99.90
11934;DHT22;6026;48.784;9.198;2022-08-02T02:10:44;18.80;99.90
11934;DHT22;6026;48.784;9.198;2022-08-02T02:13:16;18.80;99.90
11934;DHT22;6026;48.784;9.198;2022-08-02T02:15:47;18.70;99.90
11934;DHT22;6026;48.784;9.198;2022-08-02T02:18:24;18.70;99.90
11934;DHT22;6026;48.784;9.198;2022-08-02T02:20:51;18.70;99.90
11934;DHT22;6026;48.784;9.198;2022-08-02T02:23:17;18.70;99.90
11934;DHT22;6026;48.784;9.198;2022-08-02T02:25:44;18.70;99.90
11934;DHT22;6026;48.784;9.198;2022-08-02T02:28:19;18.70;99.90
11934;DHT22;6026;48.784;9.198;2022-08-02T02:30:48;18.70;99.90
11934;DHT22;6026;48.784;9.198;2022-08-02T02:33:17;18.70;99.90
11934;DHT22;6026;48.784;9.198;2022-08-02T02:35:45;18.60;99.90
11934;DHT22;6026;48.784;9.198;2022-08-02T02:38:13;18.60;99.90
11934;DHT22;6026;48.784;9.198;2022-08-02T02:40:41;18.60;99.90
11934;DHT22;6026;48.784;9.198;2022-08-02T02:43:10;18.60;99.90
11934;DHT22;6026;48.784;9.198;2022-08-02T02:45:37;18.60;99.90
11934;DHT22;6026;48.784;9.198;2022-08-02T02:48:05;18.60;99.90
11934;DHT22;6026;48.784;9.198;2022-08-02T02:50:32;18.50;99.90
11934;DHT22;6026;48.784;9.198;2022-08-02T02:52:58;18.60;99.90
11934;DHT22;6026;48.784;9.198;2022-08-02T02:55:24;18.60;99.90
11934;DHT22;6026;48.784;9.198;2022-08-02T02:57:52;18.60;99.90
11934;DHT22;6026;48.784;9.198;2022-08-02T03:00:18;18.50;99.90
11934;DHT22;6026;48.784;9.198;2022-08-02T03:03:04;18.50;99.90
11934;DHT22;6026;48.784;9.198;2022-08-02T03:05:30;18.50;99.90
11934;DHT22;6026;48.784;9.198;2022-08-02T03:07:55;18.40;99.90
11934;DHT22;6026;48.784;9.198;2022-08-02T03:10:21;18.40;99.90
11934;DHT22;6026;48.784;9.198;2022-08-02T03:12:47;18.40;99.90
11934;DHT22;6026;48.784;9.198;2022-08-02T03:15:13;18.40;99.90
11934;DHT22;6026;48.784;9.198;2022-08-02T03:17:40;18.40;99.90
11934;DHT22;6026;48.784;9.198;2022-08-02T03:20:19;18.40;99.90
11934;DHT22;6026;48.784;9.198;2022-08-02T03:22:45;18.40;99.90
11934;DHT22;6026;48.784;9.198;2022-08-02T03:25:12;18.40;99.90
11934;DHT22;6026;48.784;9.198;2022-08-02T03:27:38;18.40;99.90
11934;DHT22;6026;48.784;9.198;2022-08-02T03:30:06;18.40;99.90
11934;DHT22;6026;48.784;9.198;2022-08-02T03:32:33;18.40;99.90
11934;DHT22;6026;48.784;9.198;2022-08-02T03:34:59;18.40;99.90
11934;DHT22;6026;48.784;9.198;2022-08-02T03:37:25;18.30;99.90
11934;DHT22;6026;48.784;9.198;2022-08-02T03:39:52;18.40;99.90
11934;DHT22;6026;48.784;9.198;2022-08-02T03:42:20;18.30;99.90
11934;DHT22;6026;48.784;9.198;2022-08-02T03:44:47;18.30;99.90
11934;DHT22;6026;48.784;9.198;2022-08-02T03:47:13;18.30;99.90
11934;DHT22;6026;48.784;9.198;2022-08-02T03:49:40;18.30;99.90
11934;DHT22;6026;48.784;9.198;2022-08-02T03:52:07;18.30;99.90
11934;DHT22;6026;48.784;9.198;2022-08-02T03:54:32;18.30;99.90
11934;DHT22;6026;48.784;9.198;2022-08-02T03:56:58;18.20;99.90
11934;DHT22;6026;48.784;9.198;2022-08-02T03:59:24;18.20;99.90
11934;DHT22;6026;48.784;9.198;2022-08-02T04:01:49;18.20;99.90
11934;DHT22;6026;48.784;9.198;2022-08-02T04:04:15;18.20;99.90
11934;DHT22;6026;48.784;9.198;2022-08-02T04:06:40;18.20;99.90
11934;DHT22;6026;48.784;9.198;2022-08-02T04:09:06;18.10;99.90
11934;DHT22;6026;48.784;9.198;2022-08-02T04:11:32;18.10;99.90
11934;DHT22;6026;48.784;9.198;2022-08-02T04:13:59;18.10;99.90
11934;DHT22;6026;48.784;9.198;2022-08-02T04:16:49;18.10;99.90
11934;DHT22;6026;48.784;9.198;2022-08-02T04:19:30;18.10;99.90
11934;DHT22;6026;48.784;9.198;2022-08-02T04:21:59;18.10;99.90
11934;DHT22;6026;48.784;9.198;2022-08-02T04:24:28;18.10;99.90
11934;DHT22;6026;48.784;9.198;2022-08-02T04:26:57;18.10;99.90
11934;DHT22;6026;48.784;9.198;2022-08-02T04:29:24;18.10;99.90
11934;DHT22;6026;48.784;9.198;2022-08-02T04:31:50;18.10;99.90
11934;DHT22;6026;48.784;9.198;2022-08-02T04:34:16;18.20;99.90
11934;DHT22;6026;48.784;9.198;2022-08-02T04:36:42;18.10;99.90
11934;DHT22;6026;48.784;9.198;2022-08-02T04:39:08;18.10;99.90
11934;DHT22;6026;48.784;9.198;2022-08-02T04:41:41;18.20;99.90
11934;DHT22;6026;48.784;9.198;2022-08-02T04:44:07;18.20;99.90
11934;DHT22;6026;48.784;9.198;2022-08-02T04:46:34;18.20;99.90
11934;DHT22;6026;48.784;9.198;2022-08-02T04:49:00;18.20;99.90
11934;DHT22;6026;48.784;9.198;2022-08-02T04:51:25;18.20;99.90
11934;DHT22;6026;48.784;9.198;2022-08-02T04:53:51;18.30;99.90
11934;DHT22;6026;48.784;9.198;2022-08-02T04:56:16;18.30;99.90
11934;DHT22;6026;48.784;9.198;2022-08-02T04:58:42;18.30;99.90
11934;DHT22;6026;48.784;9.198;2022-08-02T05:01:08;18.40;99.90
11934;DHT22;6026;48.784;9.198;2022-08-02T05:03:33;18.50;99.90
11934;DHT22;6026;48.784;9.198;2022-08-02T05:05:59;18.50;99.90
11934;DHT22;6026;48.784;9.198;2022-08-02T05:08:25;18.50;99.90
11934;DHT22;6026;48.784;9.198;2022-08-02T05:10:51;18.60;99.90
11934;DHT22;6026;48.784;9.198;2022-08-02T05:13:17;18.70;99.90
11934;DHT22;6026;48.784;9.198;2022-08-02T05:15:42;18.70;99.90
11934;DHT22;6026;48.784;9.198;2022-08-02T05:18:08;18.80;99.90
11934;DHT22;6026;48.784;9.198;2022-08-02T05:20:34;18.80;99.90
11934;DHT22;6026;48.784;9.198;2022-08-02T05:22:59;18.90;99.90
11934;DHT22;6026;48.784;9.198;2022-08-02T05:25:25;19.00;99.90
11934;DHT22;6026;48.784;9.198;2022-08-02T05:27:51;19.00;99.90
11934;DHT22;6026;48.784;9.198;2022-08-02T05:30:16;19.10;99.90
11934;DHT22;6026;48.784;9.198;2022-08-02T05:32:51;19.10;99.90
11934;DHT22;6026;48.784;9.198;2022-08-02T05:35:22;19.20;99.90
11934;DHT22;6026;48.784;9.198;2022-08-02T05:37:50;19.30;99.90
11934;DHT22;6026;48.784;9.198;2022-08-02T05:40:16;19.40;99.90
11934;DHT22;6026;48.784;9.198;2022-08-02T05:42:42;19.50;99.90
11934;DHT22;6026;48.784;9.198;2022-08-02T05:45:09;19.60;99.90
11934;DHT22;6026;48.784;9.198;2022-08-02T05:47:35;19.70;99.90
11934;DHT22;6026;48.784;9.198;2022-08-02T05:50:01;19.80;99.90
11934;DHT22;6026;48.784;9.198;2022-08-02T05:52:35;19.80;99.90
11934;DHT22;6026;48.784;9.198;2022-08-02T05:55:17;19.90;99.90
11934;DHT22;6026;48.784;9.198;2022-08-02T05:57:51;20.00;99.90
11934;DHT22;6026;48.784;9.198;2022-08-02T06:00:20;20.10;99.90
11934;DHT22;6026;48.784;9.198;2022-08-02T06:03:03;20.30;99.90
11934;DHT22;6026;48.784;9.198;2022-08-02T06:05:33;20.30;99.90
11934;DHT22;6026;48.784;9.198;2022-08-02T06:08:00;20.40;99.90
11934;DHT22;6026;48.784;9.198;2022-08-02T06:10:27;20.60;99.90
11934;DHT22;6026;48.784;9.198;2022-08-02T06:15:29;21.10;99.90
11934;DHT22;6026;48.784;9.198;2022-08-02T06:17:56;21.40;99.90
11934;DHT22;6026;48.784;9.198;2022-08-02T06:20:23;21.70;99.90
11934;DHT22;6026;48.784;9.198;2022-08-02T06:22:51;21.90;99.90
11934;DHT22;6026;48.784;9.198;2022-08-02T06:25:18;22.00;99.90
11934;DHT22;6026;48.784;9.198;2022-08-02T06:27:48;22.10;99.90
11934;DHT22;6026;48.784;9.198;2022-08-02T06:30:13;22.30;99.90
11934;DHT22;6026;48.784;9.198;2022-08-02T06:32:40;22.50;99.90
11934;DHT22;6026;48.784;9.198;2022-08-02T06:35:06;22.80;99.90
11934;DHT22;6026;48.784;9.198;2022-08-02T06:37:36;23.10;99.90
11934;DHT22;6026;48.784;9.198;2022-08-02T06:43:05;23.50;99.90
11934;DHT22;6026;48.784;9.198;2022-08-02T06:45:32;23.60;99.90
11934;DHT22;6026;48.784;9.198;2022-08-02T06:47:58;23.80;99.90
11934;DHT22;6026;48.784;9.198;2022-08-02T06:50:23;23.90;99.90
11934;DHT22;6026;48.784;9.198;2022-08-02T06:52:49;24.30;99.90
11934;DHT22;6026;48.784;9.198;2022-08-02T06:55:14;24.40;99.90
11934;DHT22;6026;48.784;9.198;2022-08-02T06:57:40;24.60;99.90
11934;DHT22;6026;48.784;9.198;2022-08-02T07:00:06;24.70;99.90
11934;DHT22;6026;48.784;9.198;2022-08-02T07:02:37;24.70;99.90
11934;DHT22;6026;48.784;9.198;2022-08-02T07:05:07;24.80;99.90
11934;DHT22;6026;48.784;9.198;2022-08-02T07:07:33;24.90;99.90
11934;DHT22;6026;48.784;9.198;2022-08-02T07:09:59;24.70;99.90
11934;DHT22;6026;48.784;9.198;2022-08-02T07:12:25;24.90;99.90
11934;DHT22;6026;48.784;9.198;2022-08-02T07:14:51;25.10;99.90
11934;DHT22;6026;48.784;9.198;2022-08-02T07:17:17;25.30;99.90
11934;DHT22;6026;48.784;9.198;2022-08-02T07:19:42;25.20;99.90
11934;DHT22;6026;48.784;9.198;2022-08-02T07:22:08;25.30;99.90
11934;DHT22;6026;48.784;9.198;2022-08-02T07:24:34;25.40;99.90
11934;DHT22;6026;48.784;9.198;2022-08-02T07:27:00;25.60;99.90
11934;DHT22;6026;48.784;9.198;2022-08-02T07:29:25;25.40;99.90
11934;DHT22;6026;48.784;9.198;2022-08-02T07:31:51;25.50;99.90
11934;DHT22;6026;48.784;9.198;2022-08-02T07:34:17;25.80;99.90
11934;DHT22;6026;48.784;9.198;2022-08-02T07:36:42;25.90;99.90
11934;DHT22;6026;48.784;9.198;2022-08-02T07:39:08;26.20;99.90
11934;DHT22;6026;48.784;9.198;2022-08-02T07:41:33;26.40;99.90
11934;DHT22;6026;48.784;9.198;2022-08-02T07:43:59;26.50;99.90
11934;DHT22;6026;48.784;9.198;2022-08-02T07:46:25;26.80;99.90
11934;DHT22;6026;48.784;9.198;2022-08-02T07:48:51;26.80;99.90
11934;DHT22;6026;48.784;9.198;2022-08-02T07:51:19;26.70;99.90
11934;DHT22;6026;48.784;9.198;2022-08-02T07:53:45;26.90;99.90
11934;DHT22;6026;48.784;9.198;2022-08-02T07:56:10;26.90;99.90
11934;DHT22;6026;48.784;9.198;2022-08-02T07:58:36;26.80;99.90
11934;DHT22;6026;48.784;9.198;2022-08-02T08:01:02;26.70;99.90
11934;DHT22;6026;48.784;9.198;2022-08-02T08:03:27;26.80;99.90
11934;DHT22;6026;48.784;9.198;2022-08-02T08:05:53;27.00;99.90
11934;DHT22;6026;48.784;9.198;2022-08-02T08:08:19;27.20;99.90
11934;DHT22;6026;48.784;9.198;2022-08-02T08:10:45;27.20;99.90
11934;DHT22;6026;48.784;9.198;2022-08-02T08:13:11;27.00;99.90
11934;DHT22;6026;48.784;9.198;2022-08-02T08:15:36;27.00;99.90
11934;DHT22;6026;48.784;9.198;2022-08-02T08:18:02;27.40;99.90
11934;DHT22;6026;48.784;9.198;2022-08-02T08:20:28;27.30;99.90
11934;DHT22;6026;48.784;9.198;2022-08-02T08:22:53;27.50;99.90
11934;DHT22;6026;48.784;9.198;2022-08-02T08:25:19;27.80;99.90
11934;DHT22;6026;48.784;9.198;2022-08-02T08:27:49;28.00;99.90
11934;DHT22;6026;48.784;9.198;2022-08-02T08:30:15;28.20;99.90
11934;DHT22;6026;48.784;9.198;2022-08-02T08:32:41;28.40;99.90
11934;DHT22;6026;48.784;9.198;2022-08-02T08:35:06;28.50;99.90
11934;DHT22;6026;48.784;9.198;2022-08-02T08:37:34;28.70;99.90
11934;DHT22;6026;48.784;9.198;2022-08-02T08:40:00;28.70;99.90
11934;DHT22;6026;48.784;9.198;2022-08-02T08:42:26;28.60;99.90
11934;DHT22;6026;48.784;9.198;2022-08-02T08:44:53;28.70;99.90
11934;DHT22;6026;48.784;9.198;2022-08-02T08:47:22;28.80;99.90
11934;DHT22;6026;48.784;9.198;2022-08-02T08:49:50;29.10;99.90
11934;DHT22;6026;48.784;9.198;2022-08-02T08:52:17;29.30;99.90
11934;DHT22;6026;48.784;9.198;2022-08-02T08:54:46;29.40;99.90
11934;DHT22;6026;48.784;9.198;2022-08-02T08:57:12;29.50;99.90
11934;DHT22;6026;48.784;9.198;2022-08-02T08:59:39;29.60;99.90
11934;DHT22;6026;48.784;9.198;2022-08-02T09:02:05;29.50;99.90
11934;DHT22;6026;48.784;9.198;2022-08-02T09:04:31;29.70;99.90
11934;DHT22;6026;48.784;9.198;2022-08-02T09:06:56;29.90;99.90
11934;DHT22;6026;48.784;9.198;2022-08-02T09:09:22;29.90;99.90
11934;DHT22;6026;48.784;9.198;2022-08-02T09:11:48;29.90;99.90
11934;DHT22;6026;48.784;9.198;2022-08-02T09:14:25;29.90;99.90
11934;DHT22;6026;48.784;9.198;2022-08-02T09:16:52;30.20;99.90
11934;DHT22;6026;48.784;9.198;2022-08-02T09:19:20;30.60;99.90
11934;DHT22;6026;48.784;9.198;2022-08-02T09:21:50;30.70;99.90
11934;DHT22;6026;48.784;9.198;2022-08-02T09:24:22;30.60;99.90
11934;DHT22;6026;48.784;9.198;2022-08-02T09:26:49;30.80;99.90
11934;DHT22;6026;48.784;9.198;2022-08-02T09:29:16;31.10;99.90
11934;DHT22;6026;48.784;9.198;2022-08-02T09:31:42;31.20;99.90
11934;DHT22;6026;48.784;9.198;2022-08-02T09:34:09;31.30;99.90
11934;DHT22;6026;48.784;9.198;2022-08-02T09:36:43;31.50;99.90
11934;DHT22;6026;48.784;9.198;2022-08-02T09:39:11;31.40;99.90
11934;DHT22;6026;48.784;9.198;2022-08-02T09:41:40;31.50;99.90
11934;DHT22;6026;48.784;9.198;2022-08-02T09:44:08;31.60;99.90
11934;DHT22;6026;48.784;9.198;2022-08-02T09:46:39;31.50;99.90
11934;DHT22;6026;48.784;9.198;2022-08-02T09:49:13;31.50;99.90
11934;DHT22;6026;48.784;9.198;2022-08-02T09:51:50;31.50;99.90
11934;DHT22;6026;48.784;9.198;2022-08-02T09:54:28;31.20;99.90
11934;DHT22;6026;48.784;9.198;2022-08-02T09:56:55;30.70;99.90
11934;DHT22;6026;48.784;9.198;2022-08-02T09:59:22;30.80;99.90
11934;DHT22;6026;48.784;9.198;2022-08-02T10:01:52;31.00;99.90
11934;DHT22;6026;48.784;9.198;2022-08-02T10:04:20;31.10;99.90
11934;DHT22;6026;48.784;9.198;2022-08-02T10:06:47;31.30;99.90
11934;DHT22;6026;48.784;9.198;2022-08-02T10:09:13;31.60;99.90
11934;DHT22;6026;48.784;9.198;2022-08-02T10:11:39;31.90;99.90
11934;DHT22;6026;48.784;9.198;2022-08-02T10:14:07;31.90;99.90
11934;DHT22;6026;48.784;9.198;2022-08-02T10:16:35;31.90;99.90
11934;DHT22;6026;48.784;9.198;2022-08-02T10:19:01;32.30;99.90
11934;DHT22;6026;48.784;9.198;2022-08-02T10:21:44;32.30;99.90
11934;DHT22;6026;48.784;9.198;2022-08-02T10:24:37;32.20;99.90
11934;DHT22;6026;48.784;9.198;2022-08-02T10:27:06;32.20;99.90
11934;DHT22;6026;48.784;9.198;2022-08-02T10:29:36;31.80;99.90
11934;DHT22;6026;48.784;9.198;2022-08-02T10:32:20;32.00;99.90
11934;DHT22;6026;48.784;9.198;2022-08-02T10:34:56;32.20;99.90
11934;DHT22;6026;48.784;9.198;2022-08-02T10:37:30;32.20;99.90
11934;DHT22;6026;48.784;9.198;2022-08-02T10:39:58;32.50;99.90
11934;DHT22;6026;48.784;9.198;2022-08-02T10:42:56;32.70;99.90
11934;DHT22;6026;48.784;9.198;2022-08-02T10:45:25;32.90;99.90
11934;DHT22;6026;48.784;9.198;2022-08-02T10:53:30;33.20;99.90
11934;DHT22;6026;48.784;9.198;2022-08-02T10:55:58;33.40;99.90
11934;DHT22;6026;48.784;9.198;2022-08-02T10:58:26;33.80;99.90
11934;DHT22;6026;48.784;9.198;2022-08-02T11:00:53;33.90;99.90
11934;DHT22;6026;48.784;9.198;2022-08-02T11:06:02;33.90;99.90
11934;DHT22;6026;48.784;9.198;2022-08-02T11:08:28;33.90;99.90
11934;DHT22;6026;48.784;9.198;2022-08-02T11:10:58;33.90;99.90
11934;DHT22;6026;48.784;9.198;2022-08-02T11:13:25;33.50;99.90
11934;DHT22;6026;48.784;9.198;2022-08-02T11:16:01;33.20;99.90
11934;DHT22;6026;48.784;9.198;2022-08-02T11:23:49;32.00;99.90
11934;DHT22;6026;48.784;9.198;2022-08-02T11:29:01;31.80;99.90
11934;DHT22;6026;48.784;9.198;2022-08-02T11:31:27;31.60;99.90
11934;DHT22;6026;48.784;9.198;2022-08-02T11:33:54;31.60;99.90
11934;DHT22;6026;48.784;9.198;2022-08-02T11:36:20;31.80;99.90
11934;DHT22;6026;48.784;9.198;2022-08-02T11:38:46;32.00;99.90
11934;DHT22;6026;48.784;9.198;2022-08-02T11:41:21;32.10;99.90
11934;DHT22;6026;48.784;9.198;2022-08-02T11:43:53;32.30;99.90
11934;DHT22;6026;48.784;9.198;2022-08-02T11:46:19;32.70;99.90
11934;DHT22;6026;48.784;9.198;2022-08-02T11:48:45;33.00;99.90
11934;DHT22;6026;48.784;9.198;2022-08-02T11:51:14;32.30;99.90
11934;DHT22;6026;48.784;9.198;2022-08-02T11:53:45;32.50;99.90
11934;DHT22;6026;48.784;9.198;2022-08-02T11:56:12;32.50;99.90
11934;DHT22;6026;48.784;9.198;2022-08-02T11:58:38;32.70;99.90
11934;DHT22;6026;48.784;9.198;2022-08-02T12:01:04;32.70;99.90
11934;DHT22;6026;48.784;9.198;2022-08-02T12:03:37;33.00;99.90
11934;DHT22;6026;48.784;9.198;2022-08-02T12:06:04;33.00;99.90
11934;DHT22;6026;48.784;9.198;2022-08-02T12:08:32;33.30;99.90
11934;DHT22;6026;48.784;9.198;2022-08-02T12:11:00;33.50;99.80
11934;DHT22;6026;48.784;9.198;2022-08-02T12:13:27;33.60;99.40
11934;DHT22;6026;48.784;9.198;2022-08-02T12:15:53;33.20;99.50
11934;DHT22;6026;48.784;9.198;2022-08-02T12:18:47;33.40;99.50
11934;DHT22;6026;48.784;9.198;2022-08-02T12:21:31;33.50;99.20
11934;DHT22;6026;48.784;9.198;2022-08-02T12:23:57;33.60;98.70
11934;DHT22;6026;48.784;9.198;2022-08-02T12:26:22;33.70;98.60
11934;DHT22;6026;48.784;9.198;2022-08-02T12:28:54;33.40;98.90
11934;DHT22;6026;48.784;9.198;2022-08-02T12:31:20;33.10;98.80
11934;DHT22;6026;48.784;9.198;2022-08-02T12:33:51;32.90;99.40
11934;DHT22;6026;48.784;9.198;2022-08-02T12:36:18;33.00;99.40
11934;DHT22;6026;48.784;9.198;2022-08-02T12:38:57;32.70;99.40
11934;DHT22;6026;48.784;9.198;2022-08-02T12:41:25;32.40;99.70
11934;DHT22;6026;48.784;9.198;2022-08-02T12:43:52;32.40;99.70
11934;DHT22;6026;48.784;9.198;2022-08-02T12:46:20;32.60;99.90
11934;DHT22;6026;48.784;9.198;2022-08-02T12:48:46;33.10;99.30
11934;DHT22;6026;48.784;9.198;2022-08-02T12:51:23;33.30;99.30
11934;DHT22;6026;48.784;9.198;2022-08-02T12:53:49;33.60;98.40
11934;DHT22;6026;48.784;9.198;2022-08-02T12:58:53;34.00;97.50
11934;DHT22;6026;48.784;9.198;2022-08-02T13:01:21;34.20;97.70
11934;DHT22;6026;48.784;9.198;2022-08-02T13:03:47;34.30;96.70
11934;DHT22;6026;48.784;9.198;2022-08-02T13:06:13;34.20;97.30
11934;DHT22;6026;48.784;9.198;2022-08-02T13:08:39;34.60;96.80
11934;DHT22;6026;48.784;9.198;2022-08-02T13:11:05;34.90;96.10
11934;DHT22;6026;48.784;9.198;2022-08-02T13:13:30;34.80;96.20
11934;DHT22;6026;48.784;9.198;2022-08-02T13:15:56;34.60;95.70
11934;DHT22;6026;48.784;9.198;2022-08-02T13:18:22;34.70;96.00
11934;DHT22;6026;48.784;9.198;2022-08-02T13:20:48;34.10;95.80
11934;DHT22;6026;48.784;9.198;2022-08-02T13:23:14;34.20;96.10
11934;DHT22;6026;48.784;9.198;2022-08-02T13:25:43;34.30;96.60
11934;DHT22;6026;48.784;9.198;2022-08-02T13:28:09;34.60;95.50
11934;DHT22;6026;48.784;9.198;2022-08-02T13:30:34;34.80;94.90
11934;DHT22;6026;48.784;9.198;2022-08-02T13:33:00;34.70;94.20
11934;DHT22;6026;48.784;9.198;2022-08-02T13:35:26;34.80;95.30
11934;DHT22;6026;48.784;9.198;2022-08-02T13:37:51;35.00;94.20
11934;DHT22;6026;48.784;9.198;2022-08-02T13:40:17;34.80;93.80
11934;DHT22;6026;48.784;9.198;2022-08-02T13:42:43;34.60;94.40
11934;DHT22;6026;48.784;9.198;2022-08-02T13:45:10;34.90;94.00
11934;DHT22;6026;48.784;9.198;2022-08-02T13:47:39;34.90;92.90
11934;DHT22;6026;48.784;9.198;2022-08-02T13:50:06;34.50;93.30
11934;DHT22;6026;48.784;9.198;2022-08-02T13:52:32;34.50;93.40
11934;DHT22;6026;48.784;9.198;2022-08-02T13:54:57;34.40;93.50
11934;DHT22;6026;48.784;9.198;2022-08-02T13:57:23;34.50;93.70
11934;DHT22;6026;48.784;9.198;2022-08-02T13:59:48;34.50;94.50
11934;DHT22;6026;48.784;9.198;2022-08-02T14:02:14;34.10;93.80
11934;DHT22;6026;48.784;9.198;2022-08-02T14:04:40;33.70;95.20
11934;DHT22;6026;48.784;9.198;2022-08-02T14:07:05;33.40;95.20
11934;DHT22;6026;48.784;9.198;2022-08-02T14:09:31;33.30;95.50
11934;DHT22;6026;48.784;9.198;2022-08-02T14:12:03;33.10;95.50
11934;DHT22;6026;48.784;9.198;2022-08-02T14:14:29;33.00;95.70
11934;DHT22;6026;48.784;9.198;2022-08-02T14:16:54;33.00;96.50
11934;DHT22;6026;48.784;9.198;2022-08-02T14:19:20;33.10;95.60
11934;DHT22;6026;48.784;9.198;2022-08-02T14:21:47;33.10;95.60
11934;DHT22;6026;48.784;9.198;2022-08-02T14:24:16;33.10;95.60
11934;DHT22;6026;48.784;9.198;2022-08-02T14:26:42;33.30;95.40
11934;DHT22;6026;48.784;9.198;2022-08-02T14:29:08;33.10;95.30
11934;DHT22;6026;48.784;9.198;2022-08-02T14:31:34;33.00;95.70
11934;DHT22;6026;48.784;9.198;2022-08-02T14:33:59;32.90;95.10
11934;DHT22;6026;48.784;9.198;2022-08-02T14:36:25;32.50;95.30
11934;DHT22;6026;48.784;9.198;2022-08-02T14:38:50;32.30;95.50
11934;DHT22;6026;48.784;9.198;2022-08-02T14:41:16;32.30;95.30
11934;DHT22;6026;48.784;9.198;2022-08-02T14:43:41;32.40;95.40
11934;DHT22;6026;48.784;9.198;2022-08-02T14:46:25;32.40;95.60
11934;DHT22;6026;48.784;9.198;2022-08-02T14:48:51;31.80;95.50
11934;DHT22;6026;48.784;9.198;2022-08-02T14:51:16;31.20;96.00
11934;DHT22;6026;48.784;9.198;2022-08-02T14:53:42;31.00;95.50
11934;DHT22;6026;48.784;9.198;2022-08-02T14:56:08;31.30;96.00
11934;DHT22;6026;48.784;9.198;2022-08-02T14:58:33;31.60;95.60
11934;DHT22;6026;48.784;9.198;2022-08-02T15:00:59;31.80;95.70
11934;DHT22;6026;48.784;9.198;2022-08-02T15:03:24;31.90;94.90
11934;DHT22;6026;48.784;9.198;2022-08-02T15:05:50;31.80;95.20
11934;DHT22;6026;48.784;9.198;2022-08-02T15:08:16;31.90;94.80
11934;DHT22;6026;48.784;9.198;2022-08-02T15:10:41;31.90;95.40
11934;DHT22;6026;48.784;9.198;2022-08-02T15:13:07;32.00;94.70
11934;DHT22;6026;48.784;9.198;2022-08-02T15:15:32;32.00;95.00
11934;DHT22;6026;48.784;9.198;2022-08-02T15:17:58;31.90;94.60
11934;DHT22;6026;48.784;9.198;2022-08-02T15:20:23;31.90;95.30
11934;DHT22;6026;48.784;9.198;2022-08-02T15:22:49;31.90;94.40
11934;DHT22;6026;48.784;9.198;2022-08-02T15:25:15;31.70;94.50
11934;DHT22;6026;48.784;9.198;2022-08-02T15:27:43;31.50;94.90
11934;DHT22;6026;48.784;9.198;2022-08-02T15:30:09;31.10;94.90
11934;DHT22;6026;48.784;9.198;2022-08-02T15:32:35;31.10;95.00
11934;DHT22;6026;48.784;9.198;2022-08-02T15:35:00;31.20;95.10
11934;DHT22;6026;48.784;9.198;2022-08-02T15:37:26;31.10;95.30
11934;DHT22;6026;48.784;9.198;2022-08-02T15:39:52;31.10;95.60
11934;DHT22;6026;48.784;9.198;2022-08-02T15:42:18;31.30;95.70
11934;DHT22;6026;48.784;9.198;2022-08-02T15:44:44;31.40;94.90
11934;DHT22;6026;48.784;9.198;2022-08-02T15:47:10;31.40;94.60
11934;DHT22;6026;48.784;9.198;2022-08-02T15:49:36;31.50;94.80
11934;DHT22;6026;48.784;9.198;2022-08-02T15:52:02;31.50;95.40
11934;DHT22;6026;48.784;9.198;2022-08-02T15:54:27;31.50;95.30
11934;DHT22;6026;48.784;9.198;2022-08-02T15:56:53;31.50;94.70
11934;DHT22;6026;48.784;9.198;2022-08-02T15:59:19;31.40;94.70
11934;DHT22;6026;48.784;9.198;2022-08-02T16:01:44;31.30;95.00
11934;DHT22;6026;48.784;9.198;2022-08-02T16:04:14;31.30;94.50
11934;DHT22;6026;48.784;9.198;2022-08-02T16:06:42;31.00;94.60
11934;DHT22;6026;48.784;9.198;2022-08-02T16:09:08;30.90;94.80
11934;DHT22;6026;48.784;9.198;2022-08-02T16:11:33;30.90;94.90
11934;DHT22;6026;48.784;9.198;2022-08-02T16:13:59;30.80;94.30
11934;DHT22;6026;48.784;9.198;2022-08-02T16:16:30;30.70;94.50
11934;DHT22;6026;48.784;9.198;2022-08-02T16:18:56;30.60;94.80
11934;DHT22;6026;48.784;9.198;2022-08-02T16:21:37;30.30;95.10